Time;durP1;ratioP1;P1;durP2;ratioP2;P2;SDS_P1;SDS_P2;PMS_P1;PMS_P2;Temp;Humidity;BMP_temperature;BMP_pressure;BME280_temperature;BME280_humidity;BME280_pressure;Samples;Min_cycle;Max_cycle;Signal;HPM_P1;HPM_P2
2021/09/05 00:00:17;;;;;;;;;;;;;;;11.71;57.92;99269.63;3314876;29;20086;-78
2021/09/05 00:01:58;;;;;;;;;;;;;;;11.74;57.88;99282.53;3314923;29;19932;-77
2021/09/05 00:03:39;;;;;;;;;;;;;;;11.75;57.71;99278.88;3313855;29;19929;-76
2021/09/05 00:05:19;;;;;;;;;;;;;;;11.72;57.72;99281.97;3312897;29;20469;-76
2021/09/05 00:07:00;;;;;;;;;;;;;;;11.67;57.78;99284.44;3313756;29;20011;-76
2021/09/05 00:08:41;;;;;;;;;;;;;;;11.62;57.93;99272.78;3313665;29;19932;-76
2021/09/05 00:10:22;;;;;;;;;;;;;;;11.56;58.01;99285.09;3313833;29;19954;-76
2021/09/05 00:12:03;;;;;;;;;;;;;;;11.55;58.13;99283.47;3313993;29;20523;-76
2021/09/05 00:13:44;;;;;;;;;;;;;;;11.53;57.87;99281.00;3313792;29;19929;-76
2021/09/05 00:15:25;;;;;;;;;;;;;;;11.56;57.94;99285.09;3314238;29;19929;-77
2021/09/05 00:17:05;;;;;;;;;;;;;;;11.60;57.96;99288.97;3313700;29;19936;-76
2021/09/05 00:18:46;;;;;;;;;;;;;;;11.62;57.84;99294.94;3313606;29;19937;-76
2021/09/05 00:20:26;;;;;;;;;;;;;;;11.58;57.90;99293.72;3313909;29;19936;-76
2021/09/05 00:22:07;;;;;;;;;;;;;;;11.57;57.80;99286.75;3313900;29;20337;-76
2021/09/05 00:23:48;;;;;;;;;;;;;;;11.55;57.93;99289.59;3313494;29;19929;-75
2021/09/05 00:25:30;;;;;;;;;;;;;;;11.59;57.87;99290.03;3313245;29;19975;-76
2021/09/05 00:27:20;;;;;;;;;;;;;;;11.61;57.91;99295.94;3313677;29;20440;-76
2021/09/05 00:29:01;;;;;;;;;;;;;;;11.62;57.94;99296.78;3325390;29;19958;-75
2021/09/05 00:30:41;;;;;;;;;;;;;;;11.60;57.79;99297.00;3312746;29;19991;-77
2021/09/05 00:32:22;;;;;;;;;;;;;;;11.58;57.97;99291.03;3313719;29;19936;-75
2021/09/05 00:34:03;;;;;;;;;;;;;;;11.57;57.88;99308.09;3313549;29;19929;-75
2021/09/05 00:35:50;;;;;;;;;;;;;;;11.59;57.91;99306.03;3313567;29;20538;-76
2021/09/05 00:37:32;;;;;;;;;;;;;;;11.64;57.73;99297.38;3313599;29;20431;-76
2021/09/05 00:39:12;;;;;;;;;;;;;;;11.70;57.66;99302.72;3313289;29;19933;-75
2021/09/05 00:40:53;;;;;;;;;;;;;;;11.72;57.67;99295.31;3313622;29;19929;-75
2021/09/05 00:42:34;;;;;;;;;;;;;;;11.75;57.57;99296.75;3325005;29;19928;-75
2021/09/05 00:44:14;;;;;;;;;;;;;;;11.76;57.51;99309.84;3315492;29;19929;-74
2021/09/05 00:45:55;;;;;;;;;;;;;;;11.76;57.61;99301.84;3313320;29;19933;-75
2021/09/05 00:47:35;;;;;;;;;;;;;;;11.75;57.38;99304.75;3313446;29;19986;-74
2021/09/05 00:49:16;;;;;;;;;;;;;;;11.74;57.56;99308.44;3324933;29;19929;-75
2021/09/05 00:50:56;;;;;;;;;;;;;;;11.73;57.47;99304.94;3315877;29;19935;-75
2021/09/05 00:52:38;;;;;;;;;;;;;;;11.72;57.47;99311.31;3324798;29;20036;-75
2021/09/05 00:54:18;;;;;;;;;;;;;;;11.73;57.46;99307.63;3312302;29;19933;-75
2021/09/05 00:55:59;;;;;;;;;;;;;;;11.72;57.47;99308.66;3297335;30;19938;-76
2021/09/05 00:57:44;;;;;;;;;;;;;;;11.70;57.39;99310.72;3320109;29;20445;-75
2021/09/05 00:59:25;;;;;;;;;;;;;;;11.67;57.57;99308.47;3315464;29;19929;-76
2021/09/05 01:01:06;;;;;;;;;;;;;;;11.65;57.33;99309.72;3312916;29;19929;-75
2021/09/05 01:02:47;;;;;;;;;;;;;;;11.60;57.38;99314.88;3313097;29;19933;-75
2021/09/05 01:04:28;;;;;;;;;;;;;;;11.61;57.51;99317.31;3312299;29;19929;-76
2021/09/05 01:06:12;;;;;;;;;;;;;;;11.63;57.50;99325.13;3313067;29;19936;-75
2021/09/05 01:07:53;;;;;;;;;;;;;;;11.60;57.59;99328.22;3313380;29;19975;-75
2021/09/05 01:09:34;;;;;;;;;;;;;;;11.58;57.55;99328.41;3313173;29;19936;-75
2021/09/05 01:11:15;;;;;;;;;;;;;;;11.53;57.49;99326.34;3312902;29;19929;-75
2021/09/05 01:12:56;;;;;;;;;;;;;;;11.53;57.56;99333.56;3313138;29;20355;-76
2021/09/05 01:14:37;;;;;;;;;;;;;;;11.54;57.54;99335.22;3324722;29;20011;-75
2021/09/05 01:16:22;;;;;;;;;;;;;;;11.56;57.50;99333.13;3315328;29;19986;-75
2021/09/05 01:18:04;;;;;;;;;;;;;;;11.56;57.47;99338.47;3313243;29;20018;-75
2021/09/05 01:20:20;;;;;;;;;;;;;;;11.53;57.33;99338.88;3299060;30;20487;-75
2021/09/05 01:22:19;;;;;;;;;;;;;;;11.52;57.32;99337.25;3304986;29;19929;-75
2021/09/05 01:24:20;;;;;;;;;;;;;;;11.58;57.39;99339.09;3312676;29;19929;-75
2021/09/05 01:26:24;;;;;;;;;;;;;;;11.57;57.35;99334.78;3302119;29;20175;-75
2021/09/05 01:28:23;;;;;;;;;;;;;;;11.60;57.39;99345.03;3325052;29;19936;-75
2021/09/05 01:30:36;;;;;;;;;;;;;;;11.69;57.16;99343.75;3301792;29;19935;-75
2021/09/05 01:32:35;;;;;;;;;;;;;;;11.71;56.97;99347.03;3312207;29;19929;-75
2021/09/05 01:34:54;;;;;;;;;;;;;;;11.66;57.25;99346.03;3311518;29;19929;-75
2021/09/05 01:36:53;;;;;;;;;;;;;;;11.61;57.37;99352.00;3311443;29;20032;-75
2021/09/05 01:38:52;;;;;;;;;;;;;;;11.54;57.47;99346.69;3311492;29;19928;-74
2021/09/05 01:40:51;;;;;;;;;;;;;;;11.50;57.52;99350.81;3312598;29;20019;-75
2021/09/05 01:42:51;;;;;;;;;;;;;;;11.50;57.63;99358.00;3312725;29;19936;-75
2021/09/05 01:45:04;;;;;;;;;;;;;;;11.50;57.56;99366.81;3301605;29;19929;-75
2021/09/05 01:47:03;;;;;;;;;;;;;;;11.48;57.44;99370.72;3312842;29;19933;-75
2021/09/05 01:48:49;;;;;;;;;;;;;;;11.47;57.63;99371.75;3312695;29;20402;-76
2021/09/05 01:50:50;;;;;;;;;;;;;;;11.47;57.70;99377.09;3312628;29;20423;-76
2021/09/05 01:52:51;;;;;;;;;;;;;;;11.47;57.62;99382.44;3312526;29;20020;-76
2021/09/05 01:54:50;;;;;;;;;;;;;;;11.49;57.43;99373.19;3312549;29;19956;-76
2021/09/05 01:56:56;;;;;;;;;;;;;;;11.54;57.50;99372.56;3304759;29;20390;-76
2021/09/05 01:59:12;;;;;;;;;;;;;;;11.54;57.45;99380.59;3311047;29;19986;-76
2021/09/05 02:01:13;;;;;;;;;;;;;;;11.49;57.49;99383.06;3311663;29;19929;-76
2021/09/05 02:03:20;;;;;;;;;;;;;;;11.50;57.59;99384.69;3312361;29;20324;-76
2021/09/05 02:05:21;;;;;;;;;;;;;;;11.52;57.52;99385.31;3312245;29;19929;-76
2021/09/05 02:07:30;;;;;;;;;;;;;;;11.49;57.48;99385.72;3312796;29;19929;-75
2021/09/05 02:09:40;;;;;;;;;;;;;;;11.49;57.45;99383.06;3298543;30;20098;-75
2021/09/05 02:11:43;;;;;;;;;;;;;;;11.47;57.47;99387.78;3311093;29;19929;-75
2021/09/05 02:13:44;;;;;;;;;;;;;;;11.47;57.71;99387.78;3314928;29;20271;-75
2021/09/05 02:15:44;;;;;;;;;;;;;;;11.47;57.56;99398.44;3312378;29;20023;-75
2021/09/05 02:17:44;;;;;;;;;;;;;;;11.57;57.43;99388.16;3312454;29;19951;-75
2021/09/05 02:19:35;;;;;;;;;;;;;;;11.63;57.26;99400.66;3311810;29;19929;-75
2021/09/05 02:21:48;;;;;;;;;;;;;;;11.62;57.18;99398.22;3301166;29;20401;-75
2021/09/05 02:23:54;;;;;;;;;;;;;;;11.54;57.13;99416.09;3312555;29;20428;-75
2021/09/05 02:25:51;;;;;;;;;;;;;;;11.47;57.19;99414.47;3312281;29;19929;-75
2021/09/05 02:27:51;;;;;;;;;;;;;;;11.41;57.19;99417.94;3302003;29;19986;-76
2021/09/05 02:29:51;;;;;;;;;;;;;;;11.32;57.34;99412.81;3312620;29;19973;-75
2021/09/05 02:31:57;;;;;;;;;;;;;;;11.26;57.39;99421.66;3311339;29;19929;-75
2021/09/05 02:34:13;;;;;;;;;;;;;;;11.23;57.55;99423.91;3307402;29;19933;-75
2021/09/05 02:36:11;;;;;;;;;;;;;;;11.21;57.49;99429.44;3312342;29;19936;-75
2021/09/05 02:38:11;;;;;;;;;;;;;;;11.23;57.49;99437.22;3312431;29;19957;-76
2021/09/05 02:40:29;;;;;;;;;;;;;;;11.24;57.42;99430.88;3312284;29;19940;-75
2021/09/05 02:42:33;;;;;;;;;;;;;;;11.29;57.52;99434.56;3312397;29;19929;-75
2021/09/05 02:44:40;;;;;;;;;;;;;;;11.32;57.38;99439.50;3311919;29;19929;-75
2021/09/05 02:46:46;;;;;;;;;;;;;;;11.32;57.32;99436.00;3311164;29;19954;-74
2021/09/05 02:48:46;;;;;;;;;;;;;;;11.34;57.32;99442.78;3312409;29;19929;-75
2021/09/05 02:50:49;;;;;;;;;;;;;;;11.35;57.28;99444.41;3311936;29;19929;-74
2021/09/05 02:53:02;;;;;;;;;;;;;;;11.41;57.11;99447.28;3312201;29;19936;-75
2021/09/05 02:55:09;;;;;;;;;;;;;;;11.41;57.13;99452.63;3315758;29;19929;-75
2021/09/05 02:57:08;;;;;;;;;;;;;;;11.38;57.26;99453.03;3323620;29;20293;-75
2021/09/05 02:59:08;;;;;;;;;;;;;;;11.41;57.21;99457.97;3312018;29;19935;-75
2021/09/05 03:01:27;;;;;;;;;;;;;;;11.41;57.26;99452.63;3308011;29;20392;-75
2021/09/05 03:03:39;;;;;;;;;;;;;;;11.42;57.32;99448.94;3311196;29;19976;-75
2021/09/05 03:05:39;;;;;;;;;;;;;;;11.44;57.16;99466.41;3322600;29;20441;-76
2021/09/05 03:07:52;;;;;;;;;;;;;;;11.47;57.21;99465.97;3301160;29;19940;-75
2021/09/05 03:09:42;;;;;;;;;;;;;;;11.47;57.17;99462.50;3312296;29;20401;-75
2021/09/05 03:11:41;;;;;;;;;;;;;;;11.44;57.30;99471.72;3312339;29;20309;-75
2021/09/05 03:13:36;;;;;;;;;;;;;;;11.44;57.24;99471.72;3311337;29;19986;-75
2021/09/05 03:15:42;;;;;;;;;;;;;;;11.41;57.35;99484.66;3311893;29;20397;-75
2021/09/05 03:17:41;;;;;;;;;;;;;;;11.35;57.40;99479.09;3312183;29;20465;-75
2021/09/05 03:19:40;;;;;;;;;;;;;;;11.38;57.51;99487.72;3312231;29;19929;-75
2021/09/05 03:21:40;;;;;;;;;;;;;;;11.41;57.42;99484.66;3312168;29;19936;-75
2021/09/05 03:23:41;;;;;;;;;;;;;;;11.44;57.36;99490.41;3299493;29;20322;-74
2021/09/05 03:25:41;;;;;;;;;;;;;;;11.45;57.37;99499.22;3326408;29;20518;-75
2021/09/05 03:27:50;;;;;;;;;;;;;;;11.42;57.38;99499.66;3316776;29;20317;-75
2021/09/05 03:29:51;;;;;;;;;;;;;;;11.37;57.41;99502.09;3314775;29;20294;-75
2021/09/05 03:31:54;;;;;;;;;;;;;;;11.32;57.61;99502.72;3314854;29;19929;-74
2021/09/05 03:33:55;;;;;;;;;;;;;;;11.29;57.63;99505.78;3314362;29;20360;-75
2021/09/05 03:35:55;;;;;;;;;;;;;;;11.28;57.73;99506.81;3314296;29;20416;-74
2021/09/05 03:37:59;;;;;;;;;;;;;;;11.28;57.66;99502.31;3304723;29;20432;-76
2021/09/05 03:39:59;;;;;;;;;;;;;;;11.29;57.71;99506.63;3314036;29;20469;-74
2021/09/05 03:42:04;;;;;;;;;;;;;;;11.32;57.71;99511.53;3314269;29;19936;-75
2021/09/05 03:43:58;;;;;;;;;;;;;;;11.33;57.62;99513.19;3313221;29;19935;-75
2021/09/05 03:45:59;;;;;;;;;;;;;;;11.38;57.73;99517.09;3312905;29;19986;-75
2021/09/05 03:48:08;;;;;;;;;;;;;;;11.45;57.54;99517.91;3313592;29;19936;-75
2021/09/05 03:50:12;;;;;;;;;;;;;;;11.47;57.54;99521.22;3311624;29;19936;-77
2021/09/05 03:51:57;;;;;;;;;;;;;;;11.49;57.35;99522.66;3313238;29;20009;-76
2021/09/05 03:53:38;;;;;;;;;;;;;;;11.52;57.36;99526.75;3314007;29;19929;-76
2021/09/05 03:55:19;;;;;;;;;;;;;;;11.52;57.32;99524.09;3313122;29;20291;-76
2021/09/05 03:57:00;;;;;;;;;;;;;;;11.51;57.36;99519.75;3323206;29;19960;-76
2021/09/05 03:58:40;;;;;;;;;;;;;;;11.50;57.55;99528.78;3300675;29;19930;-76
2021/09/05 04:00:21;;;;;;;;;;;;;;;11.50;57.41;99532.28;3308142;29;19936;-75
2021/09/05 04:02:02;;;;;;;;;;;;;;;11.54;57.41;99538.06;3310523;29;20327;-74
2021/09/05 04:03:43;;;;;;;;;;;;;;;11.59;57.33;99530.25;3310333;29;19929;-76
2021/09/05 04:05:24;;;;;;;;;;;;;;;11.64;57.33;99537.63;3314241;29;20406;-76
2021/09/05 04:07:04;;;;;;;;;;;;;;;11.66;57.20;99541.72;3314478;29;19935;-76
2021/09/05 04:08:48;;;;;;;;;;;;;;;11.66;57.22;99544.41;3314631;29;19929;-76
2021/09/05 04:10:29;;;;;;;;;;;;;;;11.66;57.19;99549.75;3312915;29;20368;-76
2021/09/05 04:12:09;;;;;;;;;;;;;;;11.67;57.18;99543.41;3310156;29;19929;-76
2021/09/05 04:13:50;;;;;;;;;;;;;;;11.69;57.15;99543.97;3313372;29;19932;-76
2021/09/05 04:15:31;;;;;;;;;;;;;;;11.69;57.18;99546.66;3314058;29;19929;-76
2021/09/05 04:17:11;;;;;;;;;;;;;;;11.72;57.11;99562.28;3313877;29;19929;-76
2021/09/05 04:18:52;;;;;;;;;;;;;;;11.73;57.08;99558.56;3325312;29;20355;-76
2021/09/05 04:20:32;;;;;;;;;;;;;;;11.74;57.07;99556.72;3313091;29;19929;-76
2021/09/05 04:22:13;;;;;;;;;;;;;;;11.71;57.04;99549.94;3313766;29;19929;-78
2021/09/05 04:23:53;;;;;;;;;;;;;;;11.69;57.03;99552.00;3313091;29;19929;-76
2021/09/05 04:25:34;;;;;;;;;;;;;;;11.71;56.96;99559.81;3313441;29;20027;-76
2021/09/05 04:27:14;;;;;;;;;;;;;;;11.75;56.89;99559.19;3313551;29;19933;-76
2021/09/05 04:28:55;;;;;;;;;;;;;;;11.81;56.79;99562.91;3313734;29;19929;-76
2021/09/05 04:30:35;;;;;;;;;;;;;;;11.85;56.76;99565.97;3313899;29;20392;-76
2021/09/05 04:32:17;;;;;;;;;;;;;;;11.88;56.71;99569.09;3313903;29;20340;-75
2021/09/05 04:33:58;;;;;;;;;;;;;;;11.92;56.65;99569.50;3313873;29;20386;-76
2021/09/05 04:35:38;;;;;;;;;;;;;;;11.94;56.53;99575.44;3313063;29;19933;-76
2021/09/05 04:37:19;;;;;;;;;;;;;;;11.92;56.43;99575.66;3325221;29;19928;-74
2021/09/05 04:39:00;;;;;;;;;;;;;;;11.91;56.58;99575.88;3316039;29;19936;-75
2021/09/05 04:40:40;;;;;;;;;;;;;;;11.94;56.61;99581.63;3313476;29;19936;-75
2021/09/05 04:42:21;;;;;;;;;;;;;;;12.05;56.38;99579.34;3313715;29;19929;-74
2021/09/05 04:44:02;;;;;;;;;;;;;;;12.15;56.19;99569.88;3313415;29;19937;-75
2021/09/05 04:45:42;;;;;;;;;;;;;;;12.28;55.98;99570.88;3313335;29;19968;-76
2021/09/05 04:47:23;;;;;;;;;;;;;;;12.39;55.78;99571.09;3312479;29;20445;-76
2021/09/05 04:49:04;;;;;;;;;;;;;;;12.50;55.63;99574.16;3310148;29;20413;-75
2021/09/05 04:50:46;;;;;;;;;;;;;;;12.57;55.41;99575.78;3322641;29;19929;-74
2021/09/05 04:52:26;;;;;;;;;;;;;;;12.54;55.28;99575.34;3325135;29;20340;-75
2021/09/05 04:54:07;;;;;;;;;;;;;;;12.53;55.46;99585.22;3315881;29;19929;-75
2021/09/05 04:55:47;;;;;;;;;;;;;;;12.55;55.39;99582.34;3313414;29;20316;-75
2021/09/05 04:57:28;;;;;;;;;;;;;;;12.59;55.30;99589.72;3313710;29;19929;-76
2021/09/05 04:59:08;;;;;;;;;;;;;;;12.64;55.00;99592.59;3313250;29;19929;-75
2021/09/05 05:00:49;;;;;;;;;;;;;;;12.64;54.83;99592.59;3313362;29;19995;-76
2021/09/05 05:02:29;;;;;;;;;;;;;;;12.65;55.00;99598.78;3313763;29;20316;-77
2021/09/05 05:04:10;;;;;;;;;;;;;;;12.72;55.03;99604.09;3313082;29;19986;-76
2021/09/05 05:05:54;;;;;;;;;;;;;;;12.75;54.88;99599.16;3313420;29;20389;-74
2021/09/05 05:07:35;;;;;;;;;;;;;;;12.74;54.93;99616.22;3324867;29;19935;-76
2021/09/05 05:09:16;;;;;;;;;;;;;;;12.79;54.93;99620.94;3315524;29;20015;-76
2021/09/05 05:10:56;;;;;;;;;;;;;;;12.82;54.73;99613.31;3313251;29;19929;-75
2021/09/05 05:12:37;;;;;;;;;;;;;;;12.87;54.64;99615.34;3313282;29;19929;-76
2021/09/05 05:14:17;;;;;;;;;;;;;;;12.93;54.38;99616.38;3313020;29;19936;-75
2021/09/05 05:15:58;;;;;;;;;;;;;;;12.96;54.26;99611.44;3324956;29;19984;-76
2021/09/05 05:17:38;;;;;;;;;;;;;;;12.99;54.16;99615.53;3315605;29;19929;-76
2021/09/05 05:19:19;;;;;;;;;;;;;;;13.08;54.15;99628.44;3313121;29;20271;-76
2021/09/05 05:21:00;;;;;;;;;;;;;;;13.13;53.84;99609.06;3313222;29;19973;-75
2021/09/05 05:22:40;;;;;;;;;;;;;;;13.17;53.88;99617.53;3313092;29;19937;-76
2021/09/05 05:24:21;;;;;;;;;;;;;;;13.19;53.81;99620.78;3313191;29;19929;-75
2021/09/05 05:26:01;;;;;;;;;;;;;;;13.23;53.59;99622.00;3312895;29;19933;-75
2021/09/05 05:27:42;;;;;;;;;;;;;;;13.28;53.55;99616.88;3312861;29;19936;-75
2021/09/05 05:29:22;;;;;;;;;;;;;;;13.28;53.49;99625.72;3312978;29;19995;-75
2021/09/05 05:31:03;;;;;;;;;;;;;;;13.31;53.57;99625.28;3313104;29;19929;-76
2021/09/05 05:32:43;;;;;;;;;;;;;;;13.32;53.10;99631.47;3312904;29;19936;-76
2021/09/05 05:34:24;;;;;;;;;;;;;;;13.30;53.20;99625.50;3312178;29;19929;-74
2021/09/05 05:36:04;;;;;;;;;;;;;;;13.25;53.02;99636.00;3312876;29;20364;-76
2021/09/05 05:37:45;;;;;;;;;;;;;;;13.24;53.41;99637.03;3312824;29;20023;-76
2021/09/05 05:39:25;;;;;;;;;;;;;;;13.26;53.22;99638.47;3312987;29;20023;-75
2021/09/05 05:41:06;;;;;;;;;;;;;;;13.25;53.18;99630.66;3311874;29;19936;-75
2021/09/05 05:42:47;;;;;;;;;;;;;;;13.27;53.30;99631.28;3312652;29;19929;-76
2021/09/05 05:44:27;;;;;;;;;;;;;;;13.29;53.20;99626.53;3312618;29;19929;-76
2021/09/05 05:46:09;;;;;;;;;;;;;;;13.34;53.08;99634.72;3312494;29;19933;-76
2021/09/05 05:47:49;;;;;;;;;;;;;;;13.40;53.13;99638.41;3324553;29;20286;-76
2021/09/05 05:49:32;;;;;;;;;;;;;;;13.43;52.92;99643.34;3315362;29;19995;-75
2021/09/05 05:51:23;;;;;;;;;;;;;;;13.41;52.74;99640.88;3312692;29;19929;-77
2021/09/05 05:53:04;;;;;;;;;;;;;;;13.37;52.89;99645.03;3324752;29;20038;-76
2021/09/05 05:54:44;;;;;;;;;;;;;;;13.33;53.02;99649.16;3314239;29;19929;-75
2021/09/05 05:56:25;;;;;;;;;;;;;;;13.28;53.11;99651.66;3312939;29;19929;-76
2021/09/05 05:58:05;;;;;;;;;;;;;;;13.22;53.30;99653.31;3312763;29;19985;-76
2021/09/05 05:59:46;;;;;;;;;;;;;;;13.20;53.42;99659.91;3312987;29;20008;-76
2021/09/05 06:01:26;;;;;;;;;;;;;;;13.20;53.39;99649.19;3312827;29;19952;-76
2021/09/05 06:03:11;;;;;;;;;;;;;;;13.26;53.28;99659.88;3311475;29;19936;-74
2021/09/05 06:04:52;;;;;;;;;;;;;;;13.35;53.31;99657.81;3309039;29;21229;-76
2021/09/05 06:06:33;;;;;;;;;;;;;;;13.40;53.09;99647.28;3312550;29;20063;-76
2021/09/05 06:08:14;;;;;;;;;;;;;;;13.47;52.97;99649.91;3312542;29;19940;-76
2021/09/05 06:09:54;;;;;;;;;;;;;;;13.60;52.86;99651.69;3312905;29;20405;-76
2021/09/05 06:11:35;;;;;;;;;;;;;;;13.65;52.61;99657.22;3312618;29;19972;-76
2021/09/05 06:13:15;;;;;;;;;;;;;;;13.68;52.74;99656.78;3312341;29;20015;-76
2021/09/05 06:14:56;;;;;;;;;;;;;;;13.73;52.60;99665.00;3312764;29;20355;-75
2021/09/05 06:16:37;;;;;;;;;;;;;;;13.80;52.34;99663.09;3312739;29;19929;-75
2021/09/05 06:18:17;;;;;;;;;;;;;;;13.85;52.58;99665.97;3312637;29;19929;-75
2021/09/05 06:19:58;;;;;;;;;;;;;;;13.88;52.19;99664.69;3312577;29;19930;-76
2021/09/05 06:21:38;;;;;;;;;;;;;;;13.87;52.28;99677.28;3312352;29;19929;-75
2021/09/05 06:23:19;;;;;;;;;;;;;;;13.84;52.27;99672.38;3312382;29;20347;-75
2021/09/05 06:25:00;;;;;;;;;;;;;;;13.82;52.26;99682.47;3312439;29;19964;-75
2021/09/05 06:26:41;;;;;;;;;;;;;;;13.81;52.08;99672.81;3312518;29;19937;-75
2021/09/05 06:28:21;;;;;;;;;;;;;;;13.79;52.20;99674.88;3312794;29;20359;-76
2021/09/05 06:30:02;;;;;;;;;;;;;;;13.74;52.27;99682.72;3311649;29;19929;-76
2021/09/05 06:31:43;;;;;;;;;;;;;;;13.70;52.30;99686.88;3312107;29;20002;-76
2021/09/05 06:33:23;;;;;;;;;;;;;;;13.68;52.01;99683.56;3312436;29;19933;-75
2021/09/05 06:35:04;;;;;;;;;;;;;;;13.66;52.31;99685.66;3312617;29;19929;-75
2021/09/05 06:36:44;;;;;;;;;;;;;;;13.62;52.33;99690.63;3312469;29;19929;-75
2021/09/05 06:38:25;;;;;;;;;;;;;;;13.61;52.01;99696.19;3312573;29;20024;-75
2021/09/05 06:40:06;;;;;;;;;;;;;;;13.58;52.30;99693.94;3312397;29;19936;-77
2021/09/05 06:41:46;;;;;;;;;;;;;;;13.58;52.30;99707.31;3312366;29;19986;-76
2021/09/05 06:43:27;;;;;;;;;;;;;;;13.53;52.26;99695.41;3312203;29;19937;-75
2021/09/05 06:45:08;;;;;;;;;;;;;;;13.49;52.40;99704.06;3312368;29;19936;-76
2021/09/05 06:46:48;;;;;;;;;;;;;;;13.49;52.40;99702.22;3312319;29;19929;-76
2021/09/05 06:48:29;;;;;;;;;;;;;;;13.48;52.48;99711.28;3324069;29;19936;-76
2021/09/05 06:50:11;;;;;;;;;;;;;;;13.41;52.54;99707.81;3314652;29;19936;-76
2021/09/05 06:51:52;;;;;;;;;;;;;;;13.36;52.61;99715.66;3312481;29;19929;-75
2021/09/05 06:53:32;;;;;;;;;;;;;;;13.30;52.72;99720.00;3312488;29;19935;-75
2021/09/05 06:55:13;;;;;;;;;;;;;;;13.25;52.81;99718.97;3312192;29;19929;-76
2021/09/05 06:56:53;;;;;;;;;;;;;;;13.17;52.91;99730.72;3311373;29;19999;-76
2021/09/05 06:58:34;;;;;;;;;;;;;;;13.14;53.11;99730.31;3312987;29;20034;-75
2021/09/05 07:00:15;;;;;;;;;;;;;;;13.14;53.08;99731.16;3314725;29;19933;-75
2021/09/05 07:01:55;;;;;;;;;;;;;;;13.18;53.02;99734.22;3314748;29;20310;-75
2021/09/05 07:03:36;;;;;;;;;;;;;;;13.22;52.99;99732.78;3314584;29;19928;-75
2021/09/05 07:05:16;;;;;;;;;;;;;;;13.27;52.88;99741.03;3313369;29;20048;-76
2021/09/05 07:06:57;;;;;;;;;;;;;;;13.30;52.80;99745.97;3314667;29;19929;-75
2021/09/05 07:08:37;;;;;;;;;;;;;;;13.31;52.77;99747.59;3313769;29;19935;-75
2021/09/05 07:10:18;;;;;;;;;;;;;;;13.27;52.84;99751.75;3314508;29;19929;-76
2021/09/05 07:11:58;;;;;;;;;;;;;;;13.24;52.73;99755.63;3314474;29;19933;-76
2021/09/05 07:13:39;;;;;;;;;;;;;;;13.17;52.96;99751.31;3314418;29;20000;-75
2021/09/05 07:15:19;;;;;;;;;;;;;;;13.10;52.89;99764.72;3314702;29;19933;-76
2021/09/05 07:17:00;;;;;;;;;;;;;;;13.04;53.04;99774.41;3314430;29;20001;-75
2021/09/05 07:18:41;;;;;;;;;;;;;;;12.95;53.15;99770.28;3314404;29;19929;-75
2021/09/05 07:20:22;;;;;;;;;;;;;;;12.91;53.37;99776.25;3314411;29;19929;-75
2021/09/05 07:22:02;;;;;;;;;;;;;;;12.88;53.37;99780.16;3314407;29;19929;-74
2021/09/05 07:23:43;;;;;;;;;;;;;;;12.84;53.42;99779.75;3314257;29;19929;-78
2021/09/05 07:25:26;;;;;;;;;;;;;;;12.86;53.41;99784.91;3314473;29;19929;-77
2021/09/05 07:27:06;;;;;;;;;;;;;;;12.87;53.44;99789.22;3314429;29;20364;-75
2021/09/05 07:28:47;;;;;;;;;;;;;;;12.87;53.47;99789.22;3314317;29;20019;-76
2021/09/05 07:30:28;;;;;;;;;;;;;;;12.82;53.52;99781.81;3314254;29;19929;-75
2021/09/05 07:32:08;;;;;;;;;;;;;;;12.74;53.62;99783.88;3314420;29;20012;-77
2021/09/05 07:33:49;;;;;;;;;;;;;;;12.68;53.78;99788.22;3314311;29;20381;-77
2021/09/05 07:35:29;;;;;;;;;;;;;;;12.67;53.83;99791.91;3314813;29;19958;-77
2021/09/05 07:37:22;;;;;;;;;;;;;;;12.68;53.88;99798.91;3314246;29;19929;-77
2021/09/05 07:39:03;;;;;;;;;;;;;;;12.75;53.74;99793.53;3314287;29;20385;-75
2021/09/05 07:40:44;;;;;;;;;;;;;;;12.79;53.77;99797.47;3314180;29;19986;-76
2021/09/05 07:42:25;;;;;;;;;;;;;;;12.80;53.78;99796.44;3314319;29;19932;-76
2021/09/05 07:44:05;;;;;;;;;;;;;;;12.80;53.82;99805.28;3314458;29;20408;-78
2021/09/05 07:45:46;;;;;;;;;;;;;;;12.78;53.81;99806.53;3314397;29;19937;-76
2021/09/05 07:47:26;;;;;;;;;;;;;;;12.74;53.88;99803.44;3314107;29;19936;-76
2021/09/05 07:49:07;;;;;;;;;;;;;;;12.73;53.88;99811.66;3314170;29;20318;-76
2021/09/05 07:50:48;;;;;;;;;;;;;;;12.70;53.89;99814.72;3313945;29;19971;-76
2021/09/05 07:52:28;;;;;;;;;;;;;;;12.67;53.99;99810.63;3314130;29;19933;-76
2021/09/05 07:54:09;;;;;;;;;;;;;;;12.68;54.00;99812.28;3313777;29;19936;-75
2021/09/05 07:55:49;;;;;;;;;;;;;;;12.70;53.93;99812.91;3313211;29;20398;-76
2021/09/05 07:57:30;;;;;;;;;;;;;;;12.72;53.98;99812.69;3310546;29;19929;-76
2021/09/05 07:59:10;;;;;;;;;;;;;;;12.73;53.95;99817.84;3314020;29;20371;-75
2021/09/05 08:00:51;;;;;;;;;;;;;;;12.75;54.09;99806.91;3314060;29;19933;-76
2021/09/05 08:02:31;;;;;;;;;;;;;;;12.76;54.11;99817.41;3314447;29;20024;-76
2021/09/05 08:04:12;;;;;;;;;;;;;;;12.76;54.11;99813.94;3313942;29;19983;-75
2021/09/05 08:05:52;;;;;;;;;;;;;;;12.74;54.18;99819.47;3313906;29;19928;-76
2021/09/05 08:07:33;;;;;;;;;;;;;;;12.75;54.13;99815.78;3313910;29;19935;-76
2021/09/05 08:09:14;;;;;;;;;;;;;;;12.78;54.17;99819.91;3314089;29;20310;-76
2021/09/05 08:10:54;;;;;;;;;;;;;;;12.82;54.13;99813.09;3313267;29;20443;-75
2021/09/05 08:12:35;;;;;;;;;;;;;;;12.87;54.05;99826.69;3314041;29;19929;-75
2021/09/05 08:14:15;;;;;;;;;;;;;;;12.94;53.85;99821.34;3312739;29;20068;-75
2021/09/05 08:16:00;;;;;;;;;;;;;;;13.01;53.90;99822.97;3313450;29;20028;-75
2021/09/05 08:17:41;;;;;;;;;;;;;;;13.10;53.63;99823.56;3313748;29;19929;-75
2021/09/05 08:19:21;;;;;;;;;;;;;;;13.16;53.48;99821.91;3314034;29;20019;-75
2021/09/05 08:21:03;;;;;;;;;;;;;;;13.20;53.39;99832.00;3313725;29;20377;-76
2021/09/05 08:22:46;;;;;;;;;;;;;;;13.26;52.99;99825.00;3313715;29;19936;-76
2021/09/05 08:24:26;;;;;;;;;;;;;;;13.31;53.23;99834.06;3313658;29;19929;-75
2021/09/05 08:26:10;;;;;;;;;;;;;;;13.36;53.15;99833.44;3313485;29;19940;-75
2021/09/05 08:27:50;;;;;;;;;;;;;;;13.40;53.06;99834.69;3312742;29;19929;-76
2021/09/05 08:29:31;;;;;;;;;;;;;;;13.46;53.02;99836.50;3313816;29;19929;-76
2021/09/05 08:31:12;;;;;;;;;;;;;;;13.48;52.92;99845.16;3312467;29;20027;-76
2021/09/05 08:32:52;;;;;;;;;;;;;;;13.53;52.92;99836.50;3313383;29;19933;-76
2021/09/05 08:34:36;;;;;;;;;;;;;;;13.58;52.62;99838.53;3313506;29;20427;-76
2021/09/05 08:36:17;;;;;;;;;;;;;;;13.56;52.61;99836.09;3313633;29;19929;-76
2021/09/05 08:37:57;;;;;;;;;;;;;;;13.55;52.52;99844.31;3313710;29;19929;-76
2021/09/05 08:39:38;;;;;;;;;;;;;;;13.52;52.72;99846.38;3313405;29;19933;-76
2021/09/05 08:41:18;;;;;;;;;;;;;;;13.50;52.56;99845.78;3313386;29;19929;-76
2021/09/05 08:42:59;;;;;;;;;;;;;;;13.50;52.71;99848.47;3313796;29;20363;-78
2021/09/05 08:44:39;;;;;;;;;;;;;;;13.55;52.56;99852.34;3313411;29;19929;-74
2021/09/05 08:46:20;;;;;;;;;;;;;;;13.53;52.45;99848.03;3313402;29;19933;-75
2021/09/05 08:48:01;;;;;;;;;;;;;;;13.45;52.33;99845.59;3313403;29;19952;-74
2021/09/05 08:49:41;;;;;;;;;;;;;;;13.38;52.58;99857.34;3313180;29;20312;-74
2021/09/05 08:51:22;;;;;;;;;;;;;;;13.32;52.74;99850.97;3313314;29;19935;-75
2021/09/05 08:53:02;;;;;;;;;;;;;;;13.28;52.81;99852.41;3313454;29;19921;-75
2021/09/05 08:54:43;;;;;;;;;;;;;;;13.25;52.79;99860.84;3313337;29;20358;-75
2021/09/05 08:56:23;;;;;;;;;;;;;;;13.25;52.92;99860.84;3313570;29;20030;-75
2021/09/05 08:58:04;;;;;;;;;;;;;;;13.20;52.94;99861.44;3313489;29;19994;-77
2021/09/05 08:59:45;;;;;;;;;;;;;;;13.16;52.95;99862.88;3313209;29;19929;-75
2021/09/05 09:01:29;;;;;;;;;;;;;;;13.15;53.03;99863.09;3313148;29;19978;-76
2021/09/05 09:03:10;;;;;;;;;;;;;;;13.13;53.04;99862.47;3313130;29;19929;-77
2021/09/05 09:04:52;;;;;;;;;;;;;;;13.09;52.89;99868.25;3324747;29;19928;-76
2021/09/05 09:06:39;;;;;;;;;;;;;;;13.06;53.02;99867.81;3314559;29;19929;-76
2021/09/05 09:08:21;;;;;;;;;;;;;;;13.07;53.00;99867.63;3324676;29;20445;-76
2021/09/05 09:10:02;;;;;;;;;;;;;;;13.07;53.17;99870.31;3315343;29;19936;-76
2021/09/05 09:11:52;;;;;;;;;;;;;;;13.07;53.02;99874.84;3313046;29;20394;-76
2021/09/05 09:13:34;;;;;;;;;;;;;;;13.08;53.03;99876.47;3313111;29;19929;-76